Time;durP1;ratioP1;P1;durP2;ratioP2;P2;SDS_P1;SDS_P2;PMS_P1;PMS_P2;Temp;Humidity;BMP_temperature;BMP_pressure;BME280_temperature;BME280_humidity;BME280_pressure;Samples;Min_cycle;Max_cycle;Signal;HPM_P1;HPM_P2
2021/08/02 00:00:25;;;;;;;4.13;2.53;;;16.30;11.90;;;;;;5118841;27;20494;-73
2021/08/02 00:03:21;;;;;;;4.05;2.60;;;16.20;12.00;;;;;;5132163;27;20158;-75
2021/08/02 00:06:13;;;;;;;3.03;2.47;;;16.30;11.10;;;;;;5127367;27;20903;-74
2021/08/02 00:09:09;;;;;;;4.32;2.45;;;16.30;12.10;;;;;;5122729;27;20047;-74
2021/08/02 00:12:01;;;;;;;3.33;2.33;;;16.30;12.60;;;;;;5122041;27;20043;-74
2021/08/02 00:14:50;;;;;;;3.28;2.15;;;16.20;12.50;;;;;;5110609;27;20043;-73
2021/08/02 00:17:44;;;;;;;5.15;2.50;;;16.20;12.00;;;;;;5102807;27;20050;-74
2021/08/02 00:20:36;;;;;;;6.80;2.40;;;16.20;12.00;;;;;;5108673;27;20092;-74
2021/08/02 00:23:25;;;;;;;3.92;2.30;;;16.30;11.90;;;;;;5124544;27;20039;-74
2021/08/02 00:26:14;;;;;;;5.93;2.60;;;16.30;11.90;;;;;;5123392;27;20514;-74
2021/08/02 00:29:03;;;;;;;5.75;2.20;;;16.20;12.00;;;;;;5120005;27;20043;-74
2021/08/02 00:31:52;;;;;;;4.22;2.15;;;16.10;12.40;;;;;;5122792;27;20122;-75
2021/08/02 00:34:43;;;;;;;7.93;2.17;;;16.10;12.90;;;;;;5106670;27;20027;-74
2021/08/02 00:37:41;;;;;;;3.35;2.10;;;16.10;12.10;;;;;;5117289;27;20043;-73
2021/08/02 00:41:05;;;;;;;4.63;2.33;;;16.10;11.90;;;;;;5110065;27;20491;-75
2021/08/02 00:44:33;;;;;;;2.70;2.33;;;16.00;13.00;;;;;;5121904;27;20050;-74
2021/08/02 00:47:28;;;;;;;1.98;1.77;;;16.20;12.10;;;;;;5120682;27;20055;-74
2021/08/02 00:50:18;;;;;;;6.13;2.40;;;16.10;13.30;;;;;;5126934;27;20066;-73
2021/08/02 00:53:11;;;;;;;4.28;2.38;;;16.10;13.60;;;;;;5107486;27;20463;-75
2021/08/02 00:56:03;;;;;;;3.47;2.05;;;16.00;14.00;;;;;;5109756;27;20049;-74
2021/08/02 00:58:52;;;;;;;2.10;1.90;;;16.00;12.80;;;;;;5126035;27;20588;-73
2021/08/02 01:01:43;;;;;;;2.90;2.03;;;16.10;12.80;;;;;;5111949;27;20050;-74
2021/08/02 01:04:37;;;;;;;2.75;1.77;;;16.10;12.60;;;;;;5110984;27;20490;-72
2021/08/02 01:07:27;;;;;;;4.00;1.90;;;16.10;11.40;;;;;;5124129;27;20232;-73
2021/08/02 01:10:19;;;;;;;2.65;1.80;;;16.10;11.90;;;;;;5112798;27;20783;-73
2021/08/02 01:13:12;;;;;;;3.85;1.95;;;16.10;11.90;;;;;;5105337;27;20065;-75
2021/08/02 01:16:05;;;;;;;3.47;2.00;;;16.10;11.70;;;;;;5115868;27;20039;-73
2021/08/02 01:18:58;;;;;;;3.42;2.15;;;16.10;11.00;;;;;;5112581;27;20798;-73
2021/08/02 01:21:52;;;;;;;3.13;1.88;;;16.10;11.00;;;;;;5114313;27;20307;-72
2021/08/02 01:24:42;;;;;;;2.65;1.88;;;16.10;10.90;;;;;;5126161;27;20128;-72
2021/08/02 01:28:12;;;;;;;2.83;1.70;;;16.10;10.50;;;;;;5125875;27;20058;-72
2021/08/02 01:31:04;;;;;;;8.00;3.17;;;16.20;10.70;;;;;;5112272;27;20051;-73
2021/08/02 01:34:01;;;;;;;3.83;2.42;;;16.10;10.40;;;;;;5109856;27;20042;-73
2021/08/02 01:36:50;;;;;;;5.55;1.83;;;16.10;10.60;;;;;;5131075;27;20050;-73
2021/08/02 01:39:44;;;;;;;4.30;1.73;;;16.20;9.80;;;;;;5129331;27;20131;-73
2021/08/02 01:42:33;;;;;;;2.45;1.60;;;16.10;8.90;;;;;;5112731;27;20054;-73
2021/08/02 01:45:22;;;;;;;2.67;1.63;;;16.10;9.20;;;;;;5125304;27;20035;-73
2021/08/02 01:48:44;;;;;;;4.43;1.73;;;16.10;8.50;;;;;;5123694;27;20053;-73
2021/08/02 01:51:40;;;;;;;2.00;1.80;;;16.20;8.70;;;;;;5115066;27;20122;-73
2021/08/02 01:54:40;;;;;;;2.42;1.70;;;16.20;8.90;;;;;;5114836;27;20061;-72
2021/08/02 01:57:38;;;;;;;4.35;2.00;;;16.30;8.40;;;;;;5109408;27;20343;-73
2021/08/02 02:00:43;;;;;;;2.15;1.60;;;16.30;8.60;;;;;;5130716;27;20126;-71
2021/08/02 02:03:37;;;;;;;1.60;1.50;;;16.20;8.60;;;;;;5096020;27;20050;-73
2021/08/02 02:06:37;;;;;;;2.42;1.60;;;16.20;8.50;;;;;;5112173;27;20116;-72
2021/08/02 02:09:28;;;;;;;2.83;2.05;;;16.30;8.40;;;;;;5108690;27;20043;-72
2021/08/02 02:12:19;;;;;;;2.97;1.65;;;16.10;9.20;;;;;;5129082;27;20054;-72
2021/08/02 02:15:13;;;;;;;3.38;1.70;;;16.20;9.10;;;;;;5110127;27;20494;-72
2021/08/02 02:18:04;;;;;;;3.35;1.67;;;16.20;8.30;;;;;;5121911;27;20039;-72
2021/08/02 02:20:54;;;;;;;2.80;1.70;;;16.20;8.30;;;;;;5115350;27;20055;-72
2021/08/02 02:23:47;;;;;;;3.80;1.50;;;16.10;8.20;;;;;;5110812;27;20039;-72
2021/08/02 02:26:39;;;;;;;4.15;1.60;;;16.20;8.30;;;;;;5124501;27;20123;-72
2021/08/02 02:29:30;;;;;;;2.10;1.90;;;16.10;8.20;;;;;;5109927;27;20401;-72
2021/08/02 02:32:22;;;;;;;2.13;1.73;;;16.10;8.20;;;;;;5095535;27;20043;-73
2021/08/02 02:35:12;;;;;;;3.03;1.58;;;16.10;7.90;;;;;;5127636;27;20066;-73
2021/08/02 02:38:02;;;;;;;2.83;1.90;;;16.10;8.20;;;;;;5109382;27;20422;-73
2021/08/02 02:40:51;;;;;;;5.00;2.00;;;16.00;8.20;;;;;;5110178;27;20047;-72
2021/08/02 02:43:41;;;;;;;2.65;1.60;;;15.90;9.70;;;;;;5107216;27;20513;-73
2021/08/02 02:46:31;;;;;;;1.92;1.60;;;15.90;9.10;;;;;;5109768;27;20754;-72
2021/08/02 02:49:22;;;;;;;2.75;2.05;;;15.90;9.90;;;;;;5110576;27;20071;-73
2021/08/02 02:52:11;;;;;;;4.13;2.08;;;15.90;9.90;;;;;;5101409;27;20094;-71
2021/08/02 02:55:02;;;;;;;3.35;1.73;;;15.80;11.30;;;;;;5108694;27;20050;-73
2021/08/02 02:57:52;;;;;;;6.18;2.40;;;15.90;12.10;;;;;;5108285;27;20502;-72
2021/08/02 03:00:41;;;;;;;4.50;2.58;;;15.70;13.10;;;;;;5122849;27;20051;-73
2021/08/02 03:03:34;;;;;;;3.10;2.58;;;15.80;13.80;;;;;;5109073;27;20055;-73
2021/08/02 03:06:27;;;;;;;3.35;2.55;;;15.70;14.70;;;;;;5116388;27;20155;-73
2021/08/02 03:09:19;;;;;;;9.07;2.78;;;15.60;15.60;;;;;;5104682;27;20043;-73
2021/08/02 03:12:08;;;;;;;3.65;2.78;;;15.50;16.30;;;;;;5092508;27;20126;-72
2021/08/02 03:14:57;;;;;;;8.25;3.22;;;15.50;17.70;;;;;;5122818;27;20035;-72
2021/08/02 03:17:46;;;;;;;6.10;3.20;;;15.50;18.10;;;;;;5123214;27;20047;-73
2021/08/02 03:20:34;;;;;;;4.45;2.83;;;15.40;18.70;;;;;;5127382;27;20061;-72
2021/08/02 03:23:29;;;;;;;4.68;2.65;;;15.40;19.60;;;;;;5117870;27;20050;-72
2021/08/02 03:26:22;;;;;;;4.53;3.00;;;15.30;19.30;;;;;;5113652;27;20042;-73
2021/08/02 03:29:17;;;;;;;7.13;2.97;;;15.20;21.00;;;;;;5107839;27;20043;-72
2021/08/02 03:32:10;;;;;;;8.50;3.60;;;15.20;21.00;;;;;;5107432;27;20042;-72
2021/08/02 03:35:02;;;;;;;5.07;2.78;;;15.10;22.40;;;;;;5122404;27;20179;-73
2021/08/02 03:37:53;;;;;;;3.85;2.70;;;15.20;22.40;;;;;;5116513;27;20042;-72
2021/08/02 03:40:45;;;;;;;4.95;2.88;;;15.30;22.20;;;;;;5126222;27;20087;-72
2021/08/02 03:43:35;;;;;;;3.42;2.80;;;15.20;23.00;;;;;;5122735;27;20046;-72
2021/08/02 03:46:25;;;;;;;3.53;2.70;;;15.30;23.70;;;;;;5121320;27;20038;-72
2021/08/02 03:49:14;;;;;;;3.75;2.60;;;15.30;23.20;;;;;;5125198;27;20062;-72
2021/08/02 03:52:03;;;;;;;2.55;2.35;;;15.40;22.20;;;;;;5111259;27;20043;-72
2021/08/02 03:54:52;;;;;;;4.47;2.80;;;15.40;22.20;;;;;;5126911;27;20047;-72
2021/08/02 03:57:42;;;;;;;3.58;2.72;;;15.40;22.90;;;;;;5115979;27;20402;-72
2021/08/02 04:00:30;;;;;;;5.50;3.00;;;15.30;23.00;;;;;;5125543;27;20164;-72
2021/08/02 04:03:19;;;;;;;7.30;3.58;;;15.30;23.80;;;;;;5131883;27;20043;-73
2021/08/02 04:06:08;;;;;;;4.90;3.55;;;15.40;24.00;;;;;;5122208;27;20985;-72
2021/08/02 04:08:56;;;;;;;4.13;2.75;;;15.50;22.80;;;;;;5123449;27;20035;-72
2021/08/02 04:11:45;;;;;;;5.03;2.80;;;15.50;22.30;;;;;;5131567;27;20050;-72
2021/08/02 04:14:35;;;;;;;3.95;2.67;;;15.60;21.20;;;;;;5124487;27;20082;-72
2021/08/02 04:17:24;;;;;;;6.47;2.70;;;15.50;20.90;;;;;;5120965;27;20502;-73
2021/08/02 04:20:14;;;;;;;5.65;3.20;;;15.60;20.90;;;;;;5111806;27;20055;-71
2021/08/02 04:23:02;;;;;;;7.63;2.70;;;15.70;20.20;;;;;;5128628;27;20514;-72
2021/08/02 04:25:51;;;;;;;4.50;2.33;;;15.80;20.10;;;;;;5126623;27;20115;-72
2021/08/02 04:28:39;;;;;;;3.85;2.72;;;15.80;18.30;;;;;;5121453;27;20043;-72
2021/08/02 04:31:31;;;;;;;6.43;3.40;;;15.70;19.90;;;;;;5121978;27;20517;-72
2021/08/02 04:34:23;;;;;;;4.75;3.42;;;15.20;23.90;;;;;;5128509;27;20096;-73
2021/08/02 04:37:12;;;;;;;6.00;2.95;;;15.70;21.80;;;;;;5125454;27;20569;-71
2021/08/02 04:40:00;;;;;;;4.53;2.90;;;15.50;23.80;;;;;;5126495;27;20047;-72
2021/08/02 04:42:49;;;;;;;3.35;2.90;;;15.50;23.90;;;;;;5130052;27;20039;-72
2021/08/02 04:45:37;;;;;;;4.05;3.38;;;15.40;24.90;;;;;;5128784;27;20462;-73
2021/08/02 04:48:27;;;;;;;4.88;3.13;;;15.50;25.50;;;;;;5131482;27;20031;-72
2021/08/02 04:51:15;;;;;;;5.13;3.08;;;15.60;25.30;;;;;;5130105;27;20118;-73
2021/08/02 04:54:04;;;;;;;4.65;3.05;;;15.60;22.80;;;;;;5128480;27;20125;-71
2021/08/02 04:56:52;;;;;;;4.63;2.83;;;15.60;24.80;;;;;;5124801;27;20501;-72
2021/08/02 04:59:42;;;;;;;4.75;2.90;;;15.60;24.80;;;;;;5125421;27;20054;-72
2021/08/02 05:02:31;;;;;;;5.40;2.70;;;15.70;22.50;;;;;;5122007;27;20143;-72
2021/08/02 05:05:21;;;;;;;6.35;2.80;;;15.90;21.70;;;;;;5125392;27;20090;-73
2021/08/02 05:08:09;;;;;;;3.60;2.67;;;16.00;21.20;;;;;;5121088;27;20039;-72
2021/08/02 05:10:58;;;;;;;4.57;2.97;;;16.00;20.80;;;;;;5126273;27;20099;-72
2021/08/02 05:13:46;;;;;;;4.43;2.63;;;16.00;21.10;;;;;;5127560;27;20043;-71
2021/08/02 05:16:35;;;;;;;5.05;2.88;;;15.80;21.90;;;;;;5106801;27;20160;-73
2021/08/02 05:19:23;;;;;;;6.13;3.47;;;15.90;22.60;;;;;;5126745;27;20039;-73
2021/08/02 05:22:13;;;;;;;7.35;3.38;;;15.90;21.90;;;;;;5128641;27;20061;-73
2021/08/02 05:25:02;;;;;;;9.05;3.40;;;15.90;22.60;;;;;;5117657;27;20417;-72
2021/08/02 05:27:51;;;;;;;5.32;3.13;;;15.90;22.30;;;;;;5107683;27;20034;-72
2021/08/02 05:30:40;;;;;;;3.83;3.05;;;16.00;22.70;;;;;;5126145;27;20096;-72
2021/08/02 05:33:28;;;;;;;4.45;3.47;;;16.00;21.70;;;;;;5132847;27;20051;-73
2021/08/02 05:36:19;;;;;;;6.20;2.92;;;16.00;21.80;;;;;;5134400;27;20071;-73
2021/08/02 05:39:08;;;;;;;9.30;3.22;;;16.10;20.40;;;;;;5120324;27;20510;-73
2021/08/02 05:41:57;;;;;;;6.45;3.30;;;16.00;21.30;;;;;;5128315;27;20062;-73
2021/08/02 05:44:45;;;;;;;6.70;2.72;;;16.10;21.40;;;;;;5128493;27;20267;-73
2021/08/02 05:47:34;;;;;;;6.60;3.00;;;16.10;20.20;;;;;;5123489;27;20058;-73
2021/08/02 05:50:22;;;;;;;6.00;3.00;;;16.10;20.90;;;;;;5122285;27;20134;-72
2021/08/02 05:53:11;;;;;;;5.53;3.13;;;16.20;20.90;;;;;;5125981;27;20518;-73
2021/08/02 05:56:00;;;;;;;8.85;2.97;;;16.30;21.00;;;;;;5127453;27;20118;-73
2021/08/02 05:58:51;;;;;;;6.43;3.47;;;16.30;21.20;;;;;;5096645;27;20055;-73
2021/08/02 06:01:39;;;;;;;6.97;3.55;;;16.30;21.50;;;;;;5127131;27;20076;-73
2021/08/02 06:04:28;;;;;;;4.30;2.97;;;16.40;20.10;;;;;;5128767;27;20047;-72
2021/08/02 06:07:16;;;;;;;5.10;2.92;;;16.40;20.40;;;;;;5123876;27;20078;-73
2021/08/02 06:10:06;;;;;;;4.22;2.80;;;16.40;19.40;;;;;;5129669;27;20095;-72
2021/08/02 06:12:56;;;;;;;6.07;3.10;;;16.40;18.00;;;;;;5127965;27;20625;-73
2021/08/02 06:15:45;;;;;;;4.63;3.15;;;16.50;18.00;;;;;;5125911;27;20680;-72
2021/08/02 06:18:33;;;;;;;7.53;2.92;;;16.50;17.60;;;;;;5125229;27;20364;-72
2021/08/02 06:21:22;;;;;;;4.97;2.83;;;16.50;17.80;;;;;;5120475;27;20043;-72
2021/08/02 06:24:10;;;;;;;4.32;2.88;;;16.50;18.40;;;;;;5132539;27;20053;-72
2021/08/02 06:26:59;;;;;;;6.90;2.75;;;16.60;16.80;;;;;;5125733;27;20055;-74
2021/08/02 06:29:48;;;;;;;5.93;2.88;;;16.70;15.90;;;;;;5125816;27;20423;-73
2021/08/02 06:32:39;;;;;;;6.10;2.67;;;16.90;13.70;;;;;;5125864;27;20047;-73
2021/08/02 06:35:29;;;;;;;4.82;2.47;;;16.80;12.80;;;;;;5125183;27;20171;-72
2021/08/02 06:38:17;;;;;;;5.28;2.45;;;17.00;12.60;;;;;;5122119;27;20051;-71
2021/08/02 06:41:05;;;;;;;5.20;2.20;;;16.90;11.30;;;;;;5129902;27;20058;-71
2021/08/02 06:43:54;;;;;;;3.33;2.00;;;17.10;9.90;;;;;;5126224;27;20595;-73
2021/08/02 06:46:43;;;;;;;4.22;2.25;;;17.20;9.00;;;;;;5125258;27;20066;-73
2021/08/02 06:49:32;;;;;;;3.83;2.10;;;17.30;8.20;;;;;;5123393;27;20083;-73
2021/08/02 06:52:20;;;;;;;3.72;1.85;;;17.30;7.20;;;;;;5133974;27;20201;-72
2021/08/02 06:55:10;;;;;;;5.30;2.20;;;17.50;6.70;;;;;;5127092;27;20413;-72
2021/08/02 06:57:58;;;;;;;4.00;2.47;;;17.40;5.40;;;;;;5124676;27;20569;-73
2021/08/02 07:00:47;;;;;;;3.25;1.60;;;17.40;6.20;;;;;;5123193;27;20043;-73
2021/08/02 07:03:36;;;;;;;3.28;1.58;;;17.60;4.90;;;;;;5129604;27;20137;-73
2021/08/02 07:06:25;;;;;;;3.42;1.88;;;17.70;3.00;;;;;;5108428;27;20050;-72
2021/08/02 07:09:13;;;;;;;3.38;1.77;;;17.90;2.60;;;;;;5120465;27;20375;-72
2021/08/02 07:12:02;;;;;;;5.65;1.55;;;18.00;1.90;;;;;;5127973;27;20097;-72
2021/08/02 07:14:50;;;;;;;3.80;2.08;;;18.20;1.90;;;;;;5128565;27;20057;-72
2021/08/02 07:17:39;;;;;;;2.65;1.70;;;18.00;1.90;;;;;;5121515;27;20035;-73
2021/08/02 07:20:29;;;;;;;2.75;1.75;;;18.20;2.10;;;;;;5126674;27;20159;-72
2021/08/02 07:23:17;;;;;;;2.67;1.77;;;18.00;1.90;;;;;;5123157;27;20146;-72
2021/08/02 07:26:06;;;;;;;2.92;1.63;;;18.20;2.10;;;;;;5124317;27;20115;-72
2021/08/02 07:28:58;;;;;;;7.40;1.92;;;18.10;1.30;;;;;;5126365;27;20038;-73
2021/08/02 07:31:46;;;;;;;3.72;1.80;;;18.50;1.00;;;;;;5123194;27;20047;-73
2021/08/02 07:34:34;;;;;;;5.07;1.77;;;18.70;1.00;;;;;;5121711;27;20135;-72
2021/08/02 07:37:24;;;;;;;3.45;1.60;;;18.80;1.00;;;;;;5120202;27;20187;-72
2021/08/02 07:40:13;;;;;;;3.85;1.70;;;19.10;1.00;;;;;;5128968;27;20054;-72
2021/08/02 07:43:01;;;;;;;2.17;1.52;;;19.00;1.00;;;;;;5124014;27;20459;-72
2021/08/02 07:45:50;;;;;;;2.95;1.80;;;19.20;1.00;;;;;;5126129;27;20050;-72
2021/08/02 07:48:38;;;;;;;2.20;1.50;;;19.20;1.00;;;;;;5107709;27;20035;-72
2021/08/02 07:51:28;;;;;;;5.47;1.70;;;18.70;1.00;;;;;;5128391;27;20047;-73
2021/08/02 07:54:18;;;;;;;2.75;1.60;;;19.20;1.00;;;;;;5125741;27;20035;-72
2021/08/02 07:57:07;;;;;;;1.60;1.10;;;19.10;1.00;;;;;;5105364;27;20061;-72
2021/08/02 07:59:56;;;;;;;3.70;1.52;;;18.70;1.00;;;;;;5125509;27;20464;-73
2021/08/02 08:02:45;;;;;;;3.25;1.58;;;18.50;1.00;;;;;;5125188;27;20051;-73
2021/08/02 08:05:35;;;;;;;4.13;1.40;;;18.90;1.00;;;;;;5126147;27;20514;-72
2021/08/02 08:08:23;;;;;;;2.35;1.50;;;19.40;1.00;;;;;;5108463;27;20035;-73
2021/08/02 08:11:13;;;;;;;4.45;2.08;;;19.90;1.00;;;;;;5133053;27;20054;-72
2021/08/02 08:14:02;;;;;;;2.78;1.20;;;19.30;1.00;;;;;;5122710;27;20129;-72
2021/08/02 08:16:50;;;;;;;5.03;1.40;;;19.30;1.00;;;;;;5118711;27;20047;-72
2021/08/02 08:19:39;;;;;;;1.92;1.40;;;19.50;1.00;;;;;;5125865;27;20518;-73
2021/08/02 08:22:28;;;;;;;3.35;1.35;;;19.70;1.00;;;;;;5129142;27;20122;-73
2021/08/02 08:25:16;;;;;;;3.90;1.42;;;19.60;1.00;;;;;;5120471;27;20138;-72
2021/08/02 08:28:06;;;;;;;2.40;1.40;;;19.80;1.00;;;;;;5123555;27;20123;-72
2021/08/02 08:30:55;;;;;;;4.10;1.70;;;19.60;1.00;;;;;;5123999;27;20100;-73
2021/08/02 08:33:44;;;;;;;2.88;1.67;;;19.70;1.00;;;;;;5126926;27;20043;-74
2021/08/02 08:36:32;;;;;;;2.95;1.50;;;19.80;1.00;;;;;;5105364;27;20530;-75
2021/08/02 08:39:21;;;;;;;3.35;1.33;;;20.10;1.00;;;;;;5124408;27;20406;-75
2021/08/02 08:42:09;;;;;;;4.43;1.38;;;20.00;1.00;;;;;;5121966;27;20177;-74
2021/08/02 08:44:59;;;;;;;3.22;1.23;;;20.10;1.00;;;;;;5127749;27;20440;-73
2021/08/02 08:47:49;;;;;;;3.35;1.20;;;20.10;1.00;;;;;;5110656;27;20505;-74
2021/08/02 08:50:39;;;;;;;1.67;1.13;;;20.00;1.00;;;;;;5114914;27;20036;-74
2021/08/02 08:53:32;;;;;;;3.20;1.23;;;19.70;1.00;;;;;;5124270;27;20051;-74
2021/08/02 08:56:21;;;;;;;2.58;1.55;;;19.80;1.00;;;;;;5122152;27;20174;-74
2021/08/02 08:59:13;;;;;;;2.45;1.40;;;20.40;1.00;;;;;;5124273;27;20118;-74
2021/08/02 09:02:04;;;;;;;2.95;1.30;;;21.00;1.00;;;;;;5105641;27;20050;-75
2021/08/02 09:04:54;;;;;;;4.70;1.80;;;20.60;1.00;;;;;;5110088;27;20043;-73
2021/08/02 09:07:44;;;;;;;3.05;1.40;;;20.40;1.00;;;;;;5120761;27;20066;-74
2021/08/02 09:10:33;;;;;;;2.83;1.13;;;20.80;1.00;;;;;;5122684;27;20042;-73
2021/08/02 09:13:29;;;;;;;1.65;1.10;;;21.30;1.00;;;;;;5125089;27;20096;-72
2021/08/02 09:16:20;;;;;;;3.05;1.20;;;21.60;1.00;;;;;;5117704;27;20123;-74
2021/08/02 09:19:12;;;;;;;2.05;1.30;;;22.40;1.00;;;;;;5124173;27;20040;-74
2021/08/02 09:22:01;;;;;;;2.78;0.98;;;22.00;1.00;;;;;;5126309;27;20043;-74
2021/08/02 09:24:49;;;;;;;3.38;1.30;;;22.20;1.00;;;;;;5120434;27;20127;-74
2021/08/02 09:27:38;;;;;;;2.40;1.20;;;22.90;1.00;;;;;;5120157;27;20054;-73
2021/08/02 09:30:28;;;;;;;3.72;1.40;;;21.90;1.00;;;;;;5126254;27;20039;-74
2021/08/02 09:33:18;;;;;;;2.40;1.15;;;22.50;1.00;;;;;;5127883;27;20054;-73
2021/08/02 09:36:08;;;;;;;2.38;0.95;;;22.60;1.00;;;;;;5127085;27;20746;-74
2021/08/02 09:39:05;;;;;;;1.10;1.00;;;22.40;1.00;;;;;;5126109;27;20038;-73
2021/08/02 09:42:02;;;;;;;2.80;1.00;;;21.60;1.00;;;;;;5128354;27;20043;-74
2021/08/02 09:44:59;;;;;;;3.00;1.25;;;21.50;1.00;;;;;;5125168;27;20046;-71
2021/08/02 09:47:49;;;;;;;2.80;1.10;;;20.40;1.00;;;;;;5124169;27;20114;-75
2021/08/02 09:50:38;;;;;;;3.47;1.20;;;20.00;1.00;;;;;;5113841;27;20110;-72
2021/08/02 09:53:37;;;;;;;4.03;1.80;;;19.40;1.00;;;;;;5122664;27;20559;-75
2021/08/02 09:56:30;;;;;;;5.15;2.17;;;18.40;5.10;;;;;;5131444;27;20627;-76
2021/08/02 09:59:29;;;;;;;3.70;1.73;;;17.80;13.20;;;;;;5127172;27;20069;-75
2021/08/02 10:02:17;;;;;;;2.08;1.40;;;17.10;17.50;;;;;;5110309;27;20437;-74
2021/08/02 10:05:06;;;;;;;2.40;1.25;;;17.00;10.20;;;;;;5124838;27;20046;-76
2021/08/02 10:07:56;;;;;;;1.63;1.00;;;17.10;4.10;;;;;;5120859;27;20051;-76
2021/08/02 10:10:46;;;;;;;1.25;1.00;;;17.10;4.30;;;;;;5126274;27;20063;-76
2021/08/02 10:13:37;;;;;;;2.88;1.50;;;16.80;9.80;;;;;;5109612;27;20046;-74
2021/08/02 10:16:27;;;;;;;3.08;1.60;;;16.80;12.40;;;;;;5127638;27;20047;-75
2021/08/02 10:19:19;;;;;;;1.75;1.00;;;16.50;12.20;;;;;;5125941;27;20092;-74
2021/08/02 10:22:09;;;;;;;2.17;1.20;;;16.30;6.70;;;;;;5123332;27;20134;-75
2021/08/02 10:24:58;;;;;;;2.25;1.20;;;16.30;7.30;;;;;;5122617;27;20134;-75
2021/08/02 10:27:47;;;;;;;5.72;2.20;;;16.50;13.40;;;;;;5127633;27;20043;-76
2021/08/02 10:30:37;;;;;;;5.30;2.00;;;16.80;22.40;;;;;;5127407;27;20490;-76
2021/08/02 10:33:32;;;;;;;3.30;2.03;;;16.90;25.50;;;;;;5126137;27;20074;-75
2021/08/02 10:36:22;;;;;;;1.65;1.48;;;17.00;23.50;;;;;;5115502;27;20043;-76
2021/08/02 10:39:22;;;;;;;3.05;1.70;;;17.00;24.90;;;;;;5125228;27;20134;-78
2021/08/02 10:42:13;;;;;;;4.10;2.30;;;16.90;24.80;;;;;;5113148;27;20131;-78
2021/08/02 10:45:30;;;;;;;3.50;1.70;;;17.20;20.00;;;;;;5123705;27;20051;-77
2021/08/02 10:48:26;;;;;;;2.67;1.33;;;17.50;16.60;;;;;;5111045;27;20055;-77
2021/08/02 10:51:17;;;;;;;2.70;1.67;;;17.50;18.90;;;;;;5109036;27;20054;-78
2021/08/02 10:54:07;;;;;;;2.90;1.80;;;17.80;13.70;;;;;;5126221;27;20498;-77
2021/08/02 10:56:55;;;;;;;4.03;1.92;;;18.00;19.50;;;;;;5122988;27;20417;-77
2021/08/02 10:59:43;;;;;;;2.25;1.40;;;18.20;14.80;;;;;;5126951;27;20043;-77
2021/08/02 11:02:33;;;;;;;5.35;1.92;;;18.30;15.90;;;;;;5129491;27;20127;-77
2021/08/02 11:05:23;;;;;;;5.20;1.75;;;18.30;15.10;;;;;;5123322;27;20058;-77
2021/08/02 11:08:12;;;;;;;2.03;1.40;;;18.50;15.20;;;;;;5120081;27;20130;-77
2021/08/02 11:11:02;;;;;;;3.38;1.50;;;18.40;6.00;;;;;;5130435;27;20062;-77
2021/08/02 11:13:52;;;;;;;3.00;1.73;;;18.70;13.80;;;;;;5122493;27;20502;-77
2021/08/02 11:16:42;;;;;;;3.47;1.40;;;18.80;12.30;;;;;;5113373;27;20058;-76
2021/08/02 11:19:32;;;;;;;2.35;1.42;;;18.90;9.80;;;;;;5125311;27;20086;-77
2021/08/02 11:22:21;;;;;;;3.58;1.35;;;19.10;8.10;;;;;;5122508;27;20924;-77
2021/08/02 11:25:10;;;;;;;3.05;1.13;;;19.00;2.60;;;;;;5122075;27;20052;-77
2021/08/02 11:28:00;;;;;;;2.33;1.42;;;19.20;2.70;;;;;;5119383;27;20516;-77
2021/08/02 11:30:51;;;;;;;2.97;1.60;;;19.40;7.10;;;;;;5126296;27;20134;-77
2021/08/02 11:33:41;;;;;;;4.40;1.52;;;19.90;5.90;;;;;;5109857;27;20128;-77
2021/08/02 11:36:31;;;;;;;1.85;1.13;;;20.30;1.00;;;;;;5125337;27;20562;-76
2021/08/02 11:39:19;;;;;;;1.70;1.42;;;20.30;1.70;;;;;;5125285;27;20123;-76
2021/08/02 11:42:09;;;;;;;2.47;1.30;;;20.40;2.20;;;;;;5110245;27;20153;-77
2021/08/02 11:44:59;;;;;;;1.63;0.90;;;20.50;1.00;;;;;;5126303;27;20103;-77
2021/08/02 11:47:49;;;;;;;2.83;1.30;;;20.60;1.00;;;;;;5121880;27;20138;-77
2021/08/02 11:50:38;;;;;;;1.83;1.00;;;20.80;1.00;;;;;;5123223;27;20244;-77
2021/08/02 11:53:34;;;;;;;1.50;1.10;;;20.80;1.00;;;;;;5110209;27;20047;-77
2021/08/02 11:56:34;;;;;;;5.00;2.92;;;20.80;1.00;;;;;;5123704;27;20144;-75
2021/08/02 11:59:25;;;;;;;5.57;1.30;;;20.80;1.00;;;;;;5120481;27;20043;-75
2021/08/02 12:02:14;;;;;;;2.35;1.55;;;20.70;1.00;;;;;;5107236;27;20663;-76
2021/08/02 12:05:05;;;;;;;3.85;1.10;;;20.40;1.00;;;;;;5118223;27;20038;-76
2021/08/02 12:07:55;;;;;;;1.92;1.17;;;20.40;1.00;;;;;;5122830;27;20051;-76
2021/08/02 12:10:55;;;;;;;1.17;1.02;;;20.30;1.00;;;;;;5122304;27;20076;-75
2021/08/02 12:13:45;;;;;;;2.55;1.50;;;20.10;1.00;;;;;;5128733;27;20117;-76
2021/08/02 12:16:34;;;;;;;3.58;1.38;;;20.30;2.30;;;;;;5129409;27;20066;-77
2021/08/02 12:19:23;;;;;;;2.63;1.13;;;20.80;1.00;;;;;;5123902;27;20509;-76
2021/08/02 12:22:12;;;;;;;2.30;1.17;;;21.30;1.00;;;;;;5124574;27;20049;-76
2021/08/02 12:25:01;;;;;;;2.17;1.10;;;20.80;1.00;;;;;;5122674;27;20984;-77
2021/08/02 12:28:01;;;;;;;1.63;1.20;;;20.50;1.00;;;;;;5119357;27;20043;-76
2021/08/02 12:30:58;;;;;;;2.90;1.40;;;20.20;1.10;;;;;;5125971;27;20219;-77
2021/08/02 12:33:48;;;;;;;2.25;1.30;;;19.70;2.80;;;;;;5125773;27;20061;-75
2021/08/02 12:36:36;;;;;;;2.53;1.30;;;19.60;4.50;;;;;;5107162;27;20043;-77
2021/08/02 12:39:27;;;;;;;1.73;1.30;;;19.40;8.30;;;;;;5120581;27;20039;-76
2021/08/02 12:42:15;;;;;;;2.17;1.35;;;19.40;7.90;;;;;;5139845;27;20104;-77
2021/08/02 12:45:06;;;;;;;1.90;1.13;;;19.60;8.30;;;;;;5124685;27;20058;-76
2021/08/02 12:48:10;;;;;;;2.25;1.30;;;19.60;7.80;;;;;;5107335;27;20074;-77
2021/08/02 12:50:58;;;;;;;1.70;1.10;;;19.30;4.60;;;;;;5116707;27;20195;-78
2021/08/02 12:53:47;;;;;;;1.25;1.00;;;19.20;6.60;;;;;;5119794;27;20043;-76
2021/08/02 12:56:35;;;;;;;2.40;1.17;;;19.60;7.90;;;;;;5125892;27;20042;-77
2021/08/02 12:59:24;;;;;;;1.60;1.20;;;20.10;6.10;;;;;;5124703;27;20055;-77
2021/08/02 13:02:13;;;;;;;1.83;1.10;;;20.20;3.40;;;;;;5130518;27;20059;-76
2021/08/02 13:05:11;;;;;;;3.72;1.30;;;20.20;1.60;;;;;;5127879;27;20479;-77
2021/08/02 13:08:04;;;;;;;2.17;1.10;;;20.40;1.00;;;;;;5097731;27;20046;-76
2021/08/02 13:10:53;;;;;;;3.35;2.15;;;20.80;1.00;;;;;;5112874;27;20043;-77
2021/08/02 13:13:42;;;;;;;2.08;1.23;;;20.90;1.00;;;;;;5111273;27;20042;-76
2021/08/02 13:16:30;;;;;;;1.60;1.30;;;20.90;1.00;;;;;;5123336;27;20620;-76
2021/08/02 13:19:20;;;;;;;2.08;1.33;;;21.20;1.00;;;;;;5095602;27;20082;-77
2021/08/02 13:22:10;;;;;;;2.25;1.00;;;20.90;1.00;;;;;;5131499;27;20043;-77
2021/08/02 13:28:05;;;;;;;1.65;0.98;;;21.40;1.00;;;;;;5126647;27;20050;-76
2021/08/02 13:30:53;;;;;;;1.83;1.23;;;21.20;1.00;;;;;;5122850;27;20698;-77
2021/08/02 13:33:42;;;;;;;1.48;1.00;;;21.40;1.00;;;;;;5125249;27;20508;-76
2021/08/02 13:36:32;;;;;;;2.28;1.00;;;21.50;1.00;;;;;;5112000;27;20074;-76
2021/08/02 13:39:21;;;;;;;1.88;0.90;;;21.70;1.00;;;;;;5113113;27;20261;-76
2021/08/02 13:42:11;;;;;;;2.22;1.17;;;21.90;1.00;;;;;;5111956;27;20399;-76
2021/08/02 13:45:00;;;;;;;1.10;0.90;;;22.20;1.00;;;;;;5132569;27;20430;-76
2021/08/02 13:47:48;;;;;;;1.40;0.90;;;22.20;1.00;;;;;;5127835;27;20039;-76
2021/08/02 13:50:42;;;;;;;2.10;1.05;;;22.20;1.00;;;;;;5110987;27;20525;-76
2021/08/02 13:53:32;;;;;;;1.40;0.90;;;22.30;1.00;;;;;;5127955;27;20039;-76
2021/08/02 13:56:21;;;;;;;1.38;1.00;;;22.60;1.00;;;;;;5108942;27;20034;-76
2021/08/02 13:59:10;;;;;;;3.10;1.20;;;22.10;1.00;;;;;;5107717;27;20039;-76
2021/08/02 14:01:59;;;;;;;0.80;0.70;;;22.10;1.00;;;;;;5125381;27;20675;-77
2021/08/02 14:04:48;;;;;;;2.90;1.10;;;22.10;1.00;;;;;;5111136;27;20051;-75
2021/08/02 14:07:36;;;;;;;3.80;1.15;;;22.30;1.00;;;;;;5108383;27;20063;-76
2021/08/02 14:10:27;;;;;;;1.70;1.05;;;22.50;1.00;;;;;;5112091;27;20047;-75
2021/08/02 14:13:16;;;;;;;2.25;1.05;;;22.70;1.00;;;;;;5110305;27;20048;-76
2021/08/02 14:16:06;;;;;;;5.80;4.22;;;22.30;1.00;;;;;;5111200;27;20047;-75
2021/08/02 14:19:03;;;;;;;3.42;2.00;;;21.90;1.00;;;;;;5107125;27;20050;-76
2021/08/02 14:21:59;;;;;;;2.25;1.05;;;21.80;1.00;;;;;;5109568;27;20046;-76
2021/08/02 14:24:49;;;;;;;5.40;1.20;;;21.70;1.00;;;;;;5096505;27;20061;-76
2021/08/02 14:27:39;;;;;;;1.85;1.55;;;21.40;1.00;;;;;;5110779;27;20059;-76
2021/08/02 14:30:29;;;;;;;1.65;1.25;;;21.40;1.00;;;;;;5121858;27;20035;-76
2021/08/02 14:33:19;;;;;;;6.40;1.20;;;20.90;1.00;;;;;;5125925;27;20044;-76
2021/08/02 14:36:09;;;;;;;1.85;1.25;;;21.00;1.00;;;;;;5127296;27;20130;-76
2021/08/02 14:39:00;;;;;;;3.90;1.38;;;19.90;1.00;;;;;;5128346;27;20116;-76
2021/08/02 14:41:56;;;;;;;1.98;1.35;;;19.70;1.00;;;;;;5133237;27;20027;-76
2021/08/02 14:44:48;;;;;;;3.53;1.70;;;19.40;1.00;;;;;;5110446;27;20054;-77
2021/08/02 14:47:37;;;;;;;2.45;1.77;;;18.80;2.50;;;;;;5122409;27;20061;-77
2021/08/02 14:50:26;;;;;;;4.13;1.65;;;19.00;8.40;;;;;;5127118;27;20057;-76
2021/08/02 14:53:17;;;;;;;2.25;1.70;;;19.50;9.70;;;;;;5124730;27;20082;-77
2021/08/02 14:56:06;;;;;;;3.13;1.30;;;19.90;12.40;;;;;;5120227;27;20051;-77
2021/08/02 14:58:56;;;;;;;3.00;1.52;;;19.90;3.30;;;;;;5117800;27;20597;-76